createdAt,value
2018-08-06T00:00:58.013Z,64.75
2018-08-06T00:03:25.088Z,65.37
2018-08-06T00:05:52.788Z,65.48
2018-08-06T00:08:20.405Z,65.50
2018-08-06T00:10:48.257Z,65.57
2018-08-06T00:13:15.829Z,66.13
2018-08-06T00:15:43.550Z,66.49
2018-08-06T00:18:11.261Z,65.97
2018-08-06T00:20:38.935Z,66.22
2018-08-06T00:23:06.506Z,66.59
2018-08-06T00:25:34.170Z,66.52
2018-08-06T00:28:01.838Z,66.42
2018-08-06T00:30:29.372Z,66.08
2018-08-06T00:32:57.064Z,66.52
2018-08-06T00:35:24.604Z,66.24
2018-08-06T00:37:52.255Z,66.50
2018-08-06T00:40:20.796Z,66.70
2018-08-06T00:42:48.796Z,66.42
2018-08-06T00:45:17.992Z,66.21
2018-08-06T00:47:46.024Z,66.83
2018-08-06T00:50:13.753Z,66.41
2018-08-06T00:52:41.325Z,66.35
2018-08-06T00:55:11.733Z,66.33
2018-08-06T00:57:38.923Z,66.21
2018-08-06T01:00:06.884Z,66.85
2018-08-06T01:02:34.043Z,66.21
2018-08-06T01:05:01.000Z,66.29
2018-08-06T01:07:28.663Z,66.24
2018-08-06T01:09:56.476Z,66.14
2018-08-06T01:12:24.057Z,65.51
2018-08-06T01:14:51.631Z,65.23
2018-08-06T01:17:19.624Z,65.29
2018-08-06T01:19:47.398Z,64.83
2018-08-06T01:22:14.919Z,64.98
2018-08-06T01:24:42.751Z,64.77
2018-08-06T01:27:10.370Z,63.93
2018-08-06T01:29:37.976Z,64.25
2018-08-06T01:32:05.645Z,63.75
2018-08-06T01:34:33.189Z,63.67
2018-08-06T01:37:00.749Z,63.81
2018-08-06T01:39:28.514Z,63.93
2018-08-06T01:41:56.106Z,63.52
2018-08-06T01:44:23.801Z,63.43
2018-08-06T01:46:51.595Z,63.38
2018-08-06T01:49:19.155Z,63.23
2018-08-06T01:51:46.738Z,63.23
2018-08-06T01:54:14.482Z,63.35
2018-08-06T01:56:42.024Z,63.53
2018-08-06T01:59:09.588Z,63.59
2018-08-06T02:01:37.272Z,63.33
2018-08-06T02:04:05.012Z,63.32
2018-08-06T02:06:32.574Z,63.33
2018-08-06T02:09:00.430Z,62.99
2018-08-06T02:11:27.988Z,63.21
2018-08-06T02:13:55.571Z,62.78
2018-08-06T02:16:22.720Z,63.32
2018-08-06T02:18:50.506Z,62.61
2018-08-06T02:21:18.160Z,63.02
2018-08-06T02:23:45.227Z,62.61
2018-08-06T02:26:12.796Z,62.84
2018-08-06T02:28:39.781Z,62.37
2018-08-06T02:31:06.952Z,62.49
2018-08-06T02:33:33.910Z,62.45
2018-08-06T02:36:00.830Z,62.35
2018-08-06T02:38:28.562Z,62.82
2018-08-06T02:40:56.148Z,62.43
2018-08-06T02:43:23.803Z,62.91
2018-08-06T02:45:51.542Z,62.83
2018-08-06T02:48:19.245Z,62.75
2018-08-06T02:50:46.870Z,62.99
2018-08-06T02:53:14.766Z,62.61
2018-08-06T02:55:42.347Z,62.50
2018-08-06T02:58:09.950Z,62.60
2018-08-06T03:00:37.659Z,62.31
2018-08-06T03:03:05.283Z,62.36
2018-08-06T03:05:32.854Z,62.54
2018-08-06T03:08:00.641Z,62.53
2018-08-06T03:10:28.222Z,63.01
2018-08-06T03:12:55.880Z,62.70
2018-08-06T03:15:22.996Z,62.67
2018-08-06T03:17:50.663Z,63.16
2018-08-06T03:20:18.509Z,62.60
2018-08-06T03:22:46.305Z,62.71
2018-08-06T03:25:15.062Z,62.77
2018-08-06T03:27:43.370Z,62.84
2018-08-06T03:30:13.074Z,63.41
2018-08-06T03:32:40.912Z,63.13
2018-08-06T03:35:09.601Z,63.32
2018-08-06T03:37:37.452Z,63.75
2018-08-06T03:40:04.488Z,63.76
2018-08-06T03:42:32.057Z,64.00
2018-08-06T03:44:59.880Z,64.03
2018-08-06T03:47:27.510Z,63.97
2018-08-06T03:49:55.034Z,63.67
2018-08-06T03:52:22.943Z,63.66
2018-08-06T03:54:50.550Z,63.73
2018-08-06T03:57:18.326Z,64.04
2018-08-06T03:59:46.098Z,63.67
2018-08-06T04:02:13.684Z,63.64
2018-08-06T04:04:41.202Z,63.67
2018-08-06T04:07:08.981Z,63.53
2018-08-06T04:09:36.551Z,63.44
2018-08-06T04:12:04.172Z,63.80
2018-08-06T04:14:31.969Z,63.39
2018-08-06T04:17:00.104Z,63.21
2018-08-06T04:19:27.652Z,63.50
2018-08-06T04:21:55.541Z,63.24
2018-08-06T04:24:22.520Z,62.99
2018-08-06T04:26:49.472Z,63.25
2018-08-06T04:29:16.590Z,63.18
2018-08-06T04:31:43.561Z,62.97
2018-08-06T04:34:10.524Z,63.18
2018-08-06T04:36:37.633Z,63.09
2018-08-06T04:39:05.639Z,63.06
2018-08-06T04:41:33.240Z,62.80
2018-08-06T04:44:00.926Z,62.81
2018-08-06T04:46:27.908Z,62.75
2018-08-06T04:48:54.862Z,62.98
2018-08-06T04:51:22.034Z,62.98
2018-08-06T04:53:49.171Z,62.92
2018-08-06T04:56:16.116Z,63.35
2018-08-06T04:58:43.257Z,63.01
2018-08-06T05:01:10.300Z,62.98
2018-08-06T05:03:37.249Z,62.93
2018-08-06T05:06:04.449Z,62.96
2018-08-06T05:08:31.382Z,62.85
2018-08-06T05:10:58.344Z,62.54
2018-08-06T05:13:25.343Z,62.23
2018-08-06T05:15:52.275Z,62.61
2018-08-06T05:18:19.225Z,62.13
2018-08-06T05:20:46.371Z,61.91
2018-08-06T05:23:13.491Z,61.86
2018-08-06T05:25:40.426Z,62.21
2018-08-06T05:28:07.772Z,62.43
2018-08-06T05:30:34.860Z,61.77
2018-08-06T05:33:01.890Z,61.87
2018-08-06T05:35:29.051Z,62.30
2018-08-06T05:37:56.796Z,61.78
2018-08-06T05:40:23.836Z,61.75
2018-08-06T05:42:51.043Z,61.93
2018-08-06T05:45:18.100Z,62.51
2018-08-06T05:47:45.149Z,61.86
2018-08-06T05:50:13.085Z,61.88
2018-08-06T05:52:40.192Z,61.90
2018-08-06T05:55:08.169Z,62.20
2018-08-06T05:57:35.363Z,62.36
2018-08-06T06:00:02.414Z,62.04
2018-08-06T06:02:30.174Z,62.21
2018-08-06T06:04:58.059Z,62.11
2018-08-06T06:07:25.717Z,61.96
2018-08-06T06:09:53.402Z,62.03
2018-08-06T06:12:21.244Z,61.79
2018-08-06T06:14:48.922Z,61.64
2018-08-06T06:17:16.570Z,61.26
2018-08-06T06:19:44.453Z,61.89
2018-08-06T06:22:12.142Z,61.38
2018-08-06T06:24:40.053Z,61.65
2018-08-06T06:27:07.867Z,61.94
2018-08-06T06:29:35.504Z,61.39
2018-08-06T06:32:03.129Z,61.41
2018-08-06T06:34:31.030Z,61.24
2018-08-06T06:36:58.609Z,61.58
2018-08-06T06:39:26.205Z,61.32
2018-08-06T06:41:54.021Z,61.05
2018-08-06T06:44:21.694Z,61.02
2018-08-06T06:46:49.283Z,60.85
2018-08-06T06:49:17.095Z,61.35
2018-08-06T06:51:44.659Z,61.21
2018-08-06T06:54:13.243Z,60.92
2018-08-06T06:56:41.013Z,60.99
2018-08-06T06:59:08.047Z,61.10
2018-08-06T07:01:35.744Z,61.33
2018-08-06T07:04:03.662Z,60.96
2018-08-06T07:06:31.426Z,60.80
2018-08-06T07:08:59.021Z,61.21
2018-08-06T07:11:26.869Z,60.83
2018-08-06T07:13:54.583Z,61.28
2018-08-06T07:16:22.195Z,61.12
2018-08-06T07:18:50.001Z,61.73
2018-08-06T07:21:17.784Z,61.75
2018-08-06T07:23:45.349Z,61.73
2018-08-06T07:26:13.379Z,61.36
2018-08-06T07:28:40.992Z,61.28
2018-08-06T07:31:08.608Z,61.42
2018-08-06T07:33:36.411Z,61.73
2018-08-06T07:36:04.251Z,61.57
2018-08-06T07:38:31.956Z,61.90
2018-08-06T07:40:59.836Z,61.50
2018-08-06T07:43:27.573Z,61.66
2018-08-06T07:45:55.189Z,61.56
2018-08-06T07:48:22.891Z,61.50
2018-08-06T07:50:50.498Z,61.36
2018-08-06T07:53:18.190Z,61.42
2018-08-06T07:55:45.954Z,61.61
2018-08-06T07:58:13.572Z,61.67
2018-08-06T08:00:41.160Z,61.76
2018-08-06T08:03:09.110Z,61.93
2018-08-06T08:05:36.836Z,61.76
2018-08-06T08:08:04.554Z,62.24
2018-08-06T08:10:32.386Z,62.24
2018-08-06T08:13:00.086Z,61.99
2018-08-06T08:15:27.827Z,61.87
2018-08-06T08:17:56.746Z,62.11
2018-08-06T08:20:24.799Z,61.90
2018-08-06T08:22:52.464Z,61.81
2018-08-06T08:25:21.246Z,62.14
2018-08-06T08:27:49.151Z,62.18
2018-08-06T08:30:17.442Z,62.17
2018-08-06T08:32:45.425Z,62.19
2018-08-06T08:35:13.800Z,61.81
2018-08-06T08:37:41.617Z,62.18
2018-08-06T08:40:11.609Z,62.08
2018-08-06T08:42:39.298Z,62.05
2018-08-06T08:45:09.442Z,62.04
2018-08-06T08:47:37.306Z,62.02
2018-08-06T08:50:06.089Z,62.02
2018-08-06T08:52:33.777Z,61.48
2018-08-06T08:55:01.593Z,61.82
2018-08-06T08:57:29.244Z,62.42
2018-08-06T08:59:56.829Z,63.26
2018-08-06T09:02:24.525Z,63.90
2018-08-06T09:04:52.370Z,64.00
2018-08-06T09:07:20.077Z,64.53
2018-08-06T09:09:47.904Z,64.97
2018-08-06T09:12:15.583Z,65.67
2018-08-06T09:14:43.175Z,65.76
2018-08-06T09:17:10.982Z,66.10
2018-08-06T09:19:38.587Z,65.50
2018-08-06T09:22:06.477Z,65.69
2018-08-06T09:24:34.235Z,65.33
2018-08-06T09:27:01.862Z,65.17
2018-08-06T09:29:29.673Z,65.73
2018-08-06T09:31:57.584Z,65.56
2018-08-06T09:34:25.293Z,65.47
2018-08-06T09:36:52.923Z,65.78
2018-08-06T09:39:20.799Z,65.88
2018-08-06T09:41:48.417Z,65.52
2018-08-06T09:44:16.072Z,64.53
2018-08-06T09:46:43.944Z,64.67
2018-08-06T09:49:11.582Z,64.28
2018-08-06T09:51:39.240Z,63.54
2018-08-06T09:54:07.564Z,63.54
2018-08-06T09:56:35.205Z,63.70
2018-08-06T09:59:03.951Z,63.83
2018-08-06T10:01:37.079Z,62.90
2018-08-06T10:04:04.922Z,62.72
2018-08-06T10:06:32.689Z,62.13
2018-08-06T10:09:00.161Z,61.64
2018-08-06T10:11:27.991Z,61.15
2018-08-06T10:13:55.627Z,60.81
2018-08-06T10:16:23.384Z,60.56
2018-08-06T10:18:51.380Z,59.86
2018-08-06T10:21:18.936Z,59.57
2018-08-06T10:23:46.595Z,59.51
2018-08-06T10:26:14.225Z,59.47
2018-08-06T10:28:41.801Z,59.01
2018-08-06T10:31:09.602Z,59.08
2018-08-06T10:33:37.492Z,58.87
2018-08-06T10:36:05.158Z,58.96
2018-08-06T10:38:32.817Z,59.45
2018-08-06T10:41:00.556Z,59.02
2018-08-06T10:43:28.185Z,59.23
2018-08-06T10:45:55.815Z,59.28
2018-08-06T10:48:23.751Z,58.95
2018-08-06T10:50:51.414Z,59.30
2018-08-06T10:53:19.096Z,59.13
2018-08-06T10:55:46.895Z,58.78
2018-08-06T10:58:14.572Z,58.35
2018-08-06T11:00:42.434Z,57.81
2018-08-06T11:03:10.194Z,58.11
2018-08-06T11:05:37.870Z,57.55
2018-08-06T11:08:05.520Z,56.63
2018-08-06T11:10:33.351Z,56.45
2018-08-06T11:13:00.982Z,56.42
2018-08-06T11:15:28.639Z,56.40
2018-08-06T11:17:56.625Z,55.60
2018-08-06T11:20:24.404Z,55.43
2018-08-06T11:22:52.168Z,54.21
2018-08-06T11:25:21.033Z,54.31
2018-08-06T11:27:48.884Z,53.68
2018-08-06T11:30:18.305Z,53.99
2018-08-06T11:32:46.800Z,53.42
2018-08-06T11:35:14.938Z,52.87
2018-08-06T11:37:42.623Z,52.15
2018-08-06T11:40:11.400Z,51.68
2018-08-06T11:42:39.674Z,52.08
2018-08-06T11:45:10.129Z,51.50
2018-08-06T11:47:37.865Z,51.85
2018-08-06T11:50:05.983Z,51.66
2018-08-06T11:52:33.600Z,51.39
2018-08-06T11:55:01.374Z,50.70
2018-08-06T11:57:29.028Z,51.08
2018-08-06T11:59:56.673Z,51.24
2018-08-06T12:02:24.622Z,50.67
2018-08-06T12:04:52.278Z,49.33
2018-08-06T12:07:20.088Z,48.90
2018-08-06T12:09:47.900Z,48.64
2018-08-06T12:12:15.574Z,48.33
2018-08-06T12:14:43.235Z,47.99
2018-08-06T12:17:11.177Z,48.10
2018-08-06T12:19:38.769Z,47.54
2018-08-06T12:22:06.479Z,47.78
2018-08-06T12:24:34.430Z,47.78
2018-08-06T12:27:02.017Z,46.96
2018-08-06T12:29:29.663Z,47.04
2018-08-06T12:31:57.731Z,46.88
2018-08-06T12:34:25.476Z,46.59
2018-08-06T12:36:53.003Z,45.63
2018-08-06T12:39:20.874Z,45.75
2018-08-06T12:41:48.546Z,45.58
2018-08-06T12:44:16.206Z,45.86
2018-08-06T12:46:44.274Z,45.37
2018-08-06T12:49:11.959Z,45.77
2018-08-06T12:51:39.729Z,45.26
2018-08-06T12:54:08.045Z,45.25
2018-08-06T12:56:35.672Z,45.21
2018-08-06T12:59:03.402Z,44.91
2018-08-06T13:01:31.320Z,45.17
2018-08-06T13:03:59.032Z,45.47
2018-08-06T13:06:26.720Z,45.69
2018-08-06T13:08:54.556Z,45.08
2018-08-06T13:11:22.152Z,45.30
2018-08-06T13:13:49.819Z,45.72
2018-08-06T13:16:17.791Z,45.35
2018-08-06T13:18:45.427Z,45.50
2018-08-06T13:21:13.099Z,44.97
2018-08-06T13:23:40.984Z,44.03
2018-08-06T13:26:08.710Z,44.56
2018-08-06T13:28:36.381Z,43.70
2018-08-06T13:31:04.168Z,44.05
2018-08-06T13:33:31.804Z,43.53
2018-08-06T13:35:59.587Z,44.01
2018-08-06T13:38:27.471Z,45.88
2018-08-06T13:40:55.194Z,47.15
2018-08-06T13:43:22.810Z,47.93
2018-08-06T13:45:50.577Z,48.32
2018-08-06T13:48:18.316Z,48.19
2018-08-06T13:50:45.999Z,47.52
2018-08-06T13:53:16.889Z,47.58
2018-08-06T13:55:44.614Z,47.34
2018-08-06T13:58:12.309Z,47.94
2018-08-06T14:00:40.243Z,47.64
2018-08-06T14:03:07.952Z,47.58
2018-08-06T14:05:35.632Z,48.41
2018-08-06T14:08:04.144Z,48.73
2018-08-06T14:10:31.835Z,47.88
2018-08-06T14:12:59.429Z,47.40
2018-08-06T14:15:27.250Z,46.68
2018-08-06T14:17:54.846Z,46.47
2018-08-06T14:20:22.506Z,46.62
2018-08-06T14:22:50.391Z,47.07
2018-08-06T14:25:18.024Z,46.40
2018-08-06T14:27:45.695Z,46.33
2018-08-06T14:30:14.650Z,46.34
2018-08-06T14:32:43.187Z,47.02
2018-08-06T14:35:11.164Z,47.03
2018-08-06T14:37:38.989Z,46.92
2018-08-06T14:40:13.090Z,46.98
2018-08-06T14:42:41.140Z,47.64
2018-08-06T14:45:09.598Z,47.23
2018-08-06T14:47:37.594Z,46.95
2018-08-06T14:50:07.467Z,47.60
2018-08-06T14:52:35.193Z,48.08
2018-08-06T14:55:02.927Z,48.07
2018-08-06T14:57:35.353Z,48.33
2018-08-06T15:00:04.960Z,48.48
2018-08-06T15:02:32.873Z,48.67
2018-08-06T15:05:00.503Z,47.96
2018-08-06T15:07:28.164Z,48.52
2018-08-06T15:09:55.989Z,48.49
2018-08-06T15:12:23.600Z,48.54
2018-08-06T15:14:51.215Z,48.73
2018-08-06T15:17:19.105Z,48.69
2018-08-06T15:19:46.828Z,48.70
2018-08-06T15:22:14.461Z,49.31
2018-08-06T15:24:42.353Z,49.51
2018-08-06T15:27:10.019Z,49.45
2018-08-06T15:29:37.701Z,50.37
2018-08-06T15:32:05.659Z,50.71
2018-08-06T15:34:33.238Z,50.91
2018-08-06T15:37:01.024Z,50.84
2018-08-06T15:39:29.192Z,51.64
2018-08-06T15:41:56.825Z,50.59
2018-08-06T15:44:24.455Z,49.46
2018-08-06T15:46:52.304Z,49.41
2018-08-06T15:49:20.015Z,49.02
2018-08-06T15:51:47.667Z,48.84
2018-08-06T15:54:15.456Z,48.26
2018-08-06T15:56:43.189Z,47.76
2018-08-06T15:59:10.801Z,47.38
2018-08-06T16:01:38.563Z,47.36
2018-08-06T16:04:06.255Z,47.07
2018-08-06T16:06:33.905Z,46.96
2018-08-06T16:09:01.745Z,47.19
2018-08-06T16:11:29.418Z,47.14
2018-08-06T16:13:57.041Z,47.09
2018-08-06T16:16:24.888Z,46.83
2018-08-06T16:18:52.555Z,47.04
2018-08-06T16:21:20.188Z,47.14
2018-08-06T16:23:47.933Z,47.40
2018-08-06T16:26:15.600Z,47.25
2018-08-06T16:28:43.335Z,47.38
2018-08-06T16:31:11.164Z,47.56
2018-08-06T16:33:38.822Z,47.83
2018-08-06T16:36:06.642Z,47.68
2018-08-06T16:38:34.437Z,47.35
2018-08-06T16:41:02.199Z,47.11
2018-08-06T16:43:29.868Z,47.48
2018-08-06T16:45:57.599Z,47.39
2018-08-06T16:48:25.413Z,47.45
2018-08-06T16:50:53.129Z,47.34
2018-08-06T16:53:20.991Z,46.91
2018-08-06T16:55:48.930Z,47.54
2018-08-06T16:58:16.787Z,47.17
2018-08-06T17:00:51.240Z,46.93
2018-08-06T17:03:18.825Z,47.35
2018-08-06T17:05:46.412Z,47.50
2018-08-06T17:08:14.420Z,46.96
2018-08-06T17:10:42.230Z,46.72
2018-08-06T17:13:09.867Z,46.17
2018-08-06T17:15:37.845Z,46.31
2018-08-06T17:18:05.537Z,46.42
2018-08-06T17:20:33.291Z,46.68
2018-08-06T17:23:01.287Z,46.61
2018-08-06T17:25:29.099Z,46.03
2018-08-06T17:27:56.794Z,45.95
2018-08-06T17:30:24.557Z,46.09
2018-08-06T17:32:52.296Z,46.12
2018-08-06T17:35:20.030Z,46.18
2018-08-06T17:37:48.364Z,46.30
2018-08-06T17:40:17.507Z,46.74
2018-08-06T17:42:45.623Z,46.94
2018-08-06T17:45:16.469Z,46.49
2018-08-06T17:47:44.363Z,46.38
2018-08-06T17:50:14.649Z,46.71
2018-08-06T17:52:50.013Z,46.62
2018-08-06T17:55:18.796Z,46.83
2018-08-06T17:57:46.812Z,46.74
2018-08-06T18:00:15.033Z,46.35
2018-08-06T18:02:42.718Z,46.22
2018-08-06T18:05:12.694Z,46.74
2018-08-06T18:07:40.840Z,46.70
2018-08-06T18:10:10.053Z,46.46
2018-08-06T18:12:37.721Z,46.94
2018-08-06T18:15:06.009Z,47.22
2018-08-06T18:17:33.792Z,47.14
2018-08-06T18:20:01.587Z,47.03
2018-08-06T18:22:29.440Z,46.95
2018-08-06T18:24:57.209Z,47.43
2018-08-06T18:27:25.033Z,48.04
2018-08-06T18:29:52.831Z,48.15
2018-08-06T18:32:20.571Z,47.75
2018-08-06T18:34:48.336Z,47.77
2018-08-06T18:37:16.324Z,47.06
2018-08-06T18:39:44.018Z,47.60
2018-08-06T18:42:11.793Z,47.65
2018-08-06T18:44:39.941Z,47.68
2018-08-06T18:47:07.662Z,47.56
2018-08-06T18:49:35.387Z,47.78
2018-08-06T18:52:03.560Z,47.71
2018-08-06T18:54:32.031Z,48.11
2018-08-06T18:56:59.708Z,48.69
2018-08-06T18:59:27.760Z,48.99
2018-08-06T19:01:55.386Z,48.96
2018-08-06T19:04:23.107Z,48.68
2018-08-06T19:06:50.917Z,49.21
2018-08-06T19:09:18.983Z,49.31
2018-08-06T19:11:47.039Z,49.22
2018-08-06T19:14:21.330Z,48.97
2018-08-06T19:16:50.258Z,48.97
2018-08-06T19:19:21.847Z,49.00
2018-08-06T19:21:50.136Z,49.54
2018-08-06T19:24:23.537Z,49.59
2018-08-06T19:26:51.366Z,49.13
2018-08-06T19:29:18.998Z,49.24
2018-08-06T19:31:46.692Z,49.66
2018-08-06T19:34:14.645Z,49.13
2018-08-06T19:36:47.906Z,49.06
2018-08-06T19:39:15.761Z,49.55
2018-08-06T19:41:43.557Z,49.50
2018-08-06T19:44:11.167Z,49.59
2018-08-06T19:46:39.293Z,49.67
2018-08-06T19:49:12.727Z,49.56
2018-08-06T19:51:40.583Z,49.60
2018-08-06T19:54:08.323Z,50.07
2018-08-06T19:56:36.055Z,49.92
2018-08-06T19:59:03.893Z,50.07
2018-08-06T20:01:31.561Z,50.11
2018-08-06T20:03:59.192Z,49.75
2018-08-06T20:06:27.106Z,50.16
2018-08-06T20:08:54.793Z,50.21
2018-08-06T20:11:22.533Z,49.80
2018-08-06T20:13:50.408Z,50.17
2018-08-06T20:16:18.065Z,50.36
2018-08-06T20:18:45.740Z,50.61
2018-08-06T20:21:13.434Z,50.46
2018-08-06T20:23:41.102Z,51.24
2018-08-06T20:26:08.662Z,50.67
2018-08-06T20:28:36.416Z,50.72
2018-08-06T20:31:04.089Z,50.75
2018-08-06T20:33:31.770Z,50.97
2018-08-06T20:35:59.587Z,51.65
2018-08-06T20:38:27.248Z,51.08
2018-08-06T20:40:54.902Z,51.26
2018-08-06T20:43:22.569Z,51.35
2018-08-06T20:45:50.263Z,51.08
2018-08-06T20:48:18.052Z,51.75
2018-08-06T20:50:45.788Z,51.51
2018-08-06T20:53:13.371Z,51.83
2018-08-06T20:55:40.999Z,51.94
2018-08-06T20:58:08.801Z,51.83
2018-08-06T21:00:36.433Z,52.09
2018-08-06T21:03:04.286Z,52.17
2018-08-06T21:05:31.981Z,51.93
2018-08-06T21:07:59.651Z,52.01
2018-08-06T21:10:27.377Z,52.07
2018-08-06T21:12:55.119Z,52.51
2018-08-06T21:15:22.834Z,52.62
2018-08-06T21:17:50.429Z,52.37
2018-08-06T21:20:18.870Z,52.81
2018-08-06T21:22:47.639Z,52.74
2018-08-06T21:25:15.485Z,53.20
2018-08-06T21:27:44.317Z,53.36
2018-08-06T21:30:14.752Z,52.98
2018-08-06T21:32:45.584Z,53.00
2018-08-06T21:35:13.418Z,53.18
2018-08-06T21:37:41.954Z,53.61
2018-08-06T21:40:09.753Z,53.76
2018-08-06T21:42:37.615Z,53.79
2018-08-06T21:45:05.429Z,53.73
2018-08-06T21:47:33.171Z,53.96
2018-08-06T21:50:01.027Z,54.36
2018-08-06T21:52:28.722Z,54.26
2018-08-06T21:54:56.558Z,54.04
2018-08-06T21:57:24.153Z,54.38
2018-08-06T21:59:51.753Z,53.96
2018-08-06T22:02:19.663Z,54.29
2018-08-06T22:04:47.599Z,54.14
2018-08-06T22:07:15.322Z,54.25
2018-08-06T22:09:43.105Z,54.38
2018-08-06T22:12:10.785Z,54.17
2018-08-06T22:14:38.425Z,54.21
2018-08-06T22:17:06.436Z,54.29
2018-08-06T22:19:34.109Z,54.62
2018-08-06T22:22:01.807Z,54.49
2018-08-06T22:24:29.544Z,54.49
2018-08-06T22:26:57.271Z,54.81
2018-08-06T22:29:25.024Z,54.91
2018-08-06T22:31:52.960Z,54.98
2018-08-06T22:34:20.772Z,55.63
2018-08-06T22:36:48.370Z,55.78
2018-08-06T22:39:16.057Z,55.63
2018-08-06T22:41:43.702Z,55.79
2018-08-06T22:44:11.318Z,56.34
2018-08-06T22:46:38.975Z,56.47
2018-08-06T22:49:06.642Z,56.65
2018-08-06T22:51:34.470Z,56.37
2018-08-06T22:54:02.246Z,56.85
2018-08-06T22:56:29.953Z,56.68
2018-08-06T22:58:57.563Z,57.26
2018-08-06T23:01:25.470Z,56.78
2018-08-06T23:03:53.167Z,56.85
2018-08-06T23:06:20.841Z,56.91
2018-08-06T23:08:48.973Z,57.51
2018-08-06T23:11:16.672Z,57.37
2018-08-06T23:13:44.328Z,57.17
2018-08-06T23:16:12.276Z,57.54
2018-08-06T23:18:39.902Z,57.49
2018-08-06T23:21:07.494Z,58.08
2018-08-06T23:23:35.322Z,57.77
2018-08-06T23:26:03.034Z,58.31
2018-08-06T23:28:30.668Z,57.85
2018-08-06T23:30:58.555Z,58.05
2018-08-06T23:33:26.163Z,58.80
2018-08-06T23:35:53.815Z,58.66
2018-08-06T23:38:21.833Z,58.34
2018-08-06T23:40:49.406Z,58.34
2018-08-06T23:43:17.100Z,58.80
2018-08-06T23:45:44.753Z,58.89
2018-08-06T23:48:12.330Z,58.58
2018-08-06T23:50:40.007Z,58.60
2018-08-06T23:53:08.184Z,58.91
2018-08-06T23:55:35.855Z,58.64
2018-08-06T23:58:03.461Z,58.84
